ENNA METAR and TAF weather

Enter ICAO airport designator
Station Type Date Time Source
ENNA METAR 2018/04/27 00:50 UTC NOAA

ENNA 270050Z AUTO 34010KT 9999 FEW048/// BKN064/// 01/M00 Q1000 RMK WIND 1800FT 06016KT


Station Type Date Time Source
ENNA Decoded METAR 2018/04/27 00:50 UTC NOAA

Banak, Norway (ENNA) 70-04N 024-59E 8M
Apr 26, 2018 - 08:50 PM EDT / 2018.04.27 0050 UTC
Wind: from the NNW (340 degrees) at 12 MPH (10 KT):0
Visibility: greater than 7 mile(s):0
Sky conditions: mostly cloudy
Temperature: 33 F (1 C)
Windchill: 24 F (-4 C):1
Dew Point: 32 F (0 C)
Relative Humidity: 93%
Pressure (altimeter): 29.53 in. Hg (1000 hPa)
ob: ENNA 270050Z AUTO 34010KT 9999 FEW048/// BKN064/// 01/M00 Q1000 RMK WIND 1800FT 06016KT
cycle: 1

Station Type Date Time Source
ENNA TAF 2018/04/26 18:59 UTC NOAA

TAF ENNA 261700Z 2618/2718 36008KT 9999 FEW005 BKN020
TEMPO 2618/2708 4000 -SNRA BKN005
TEMPO 2716/2718 4000 -SNRA VV012


Example: see airport list